createdAt,value
2024-01-19T00:00:50.591Z,12.07
2024-01-19T00:03:18.277Z,10.37
2024-01-19T00:05:46.130Z,15.20
2024-01-19T00:08:13.931Z,12.23
2024-01-19T00:10:41.629Z,9.83
2024-01-19T00:13:09.276Z,18.80
2024-01-19T00:15:42.184Z,10.43
2024-01-19T00:18:13.004Z,10.63
2024-01-19T00:20:40.664Z,13.77
2024-01-19T00:23:08.282Z,11.77
2024-01-19T00:25:35.908Z,14.23
2024-01-19T00:28:03.516Z,16.87
2024-01-19T00:30:31.492Z,14.13
2024-01-19T00:32:59.317Z,15.13
2024-01-19T00:35:28.363Z,13.37
2024-01-19T00:37:55.988Z,15.33
2024-01-19T00:40:24.216Z,12.37
2024-01-19T00:42:51.890Z,12.57
2024-01-19T00:45:19.548Z,14.43
2024-01-19T00:47:47.247Z,15.30
2024-01-19T00:50:15.201Z,12.23
2024-01-19T00:52:44.209Z,12.27
2024-01-19T00:55:12.715Z,15.70
2024-01-19T00:57:40.404Z,18.17
2024-01-19T01:00:10.039Z,12.20
2024-01-19T01:02:37.691Z,13.80
2024-01-19T01:05:06.310Z,11.47
2024-01-19T01:07:33.965Z,14.60
2024-01-19T01:10:03.498Z,15.83
2024-01-19T01:12:31.159Z,16.97
2024-01-19T01:14:58.862Z,11.93
2024-01-19T01:17:26.564Z,19.20
2024-01-19T01:19:54.273Z,19.07
2024-01-19T01:22:21.903Z,14.40
2024-01-19T01:24:49.490Z,17.83
2024-01-19T01:27:18.499Z,20.92
2024-01-19T01:29:46.179Z,19.60
2024-01-19T01:32:13.889Z,16.20
2024-01-19T01:34:41.545Z,15.70
2024-01-19T01:37:09.191Z,16.73
2024-01-19T01:39:36.851Z,17.93
2024-01-19T01:42:04.866Z,16.37
2024-01-19T01:44:33.911Z,18.47
2024-01-19T01:47:00.705Z,19.70
2024-01-19T01:49:28.601Z,16.93
2024-01-19T01:51:56.908Z,17.33
2024-01-19T01:54:24.603Z,17.33
2024-01-19T01:56:52.917Z,19.50
2024-01-19T01:59:21.250Z,16.60
2024-01-19T02:01:50.546Z,19.07
2024-01-19T02:04:18.223Z,20.57
2024-01-19T02:06:46.094Z,19.83
2024-01-19T02:09:14.613Z,17.50
2024-01-19T02:11:42.414Z,18.73
2024-01-19T02:14:11.730Z,17.97
2024-01-19T02:16:39.519Z,17.97
2024-01-19T02:19:08.655Z,20.13
2024-01-19T02:21:36.344Z,17.40
2024-01-19T02:24:05.538Z,16.70
2024-01-19T02:26:36.015Z,21.07
2024-01-19T02:29:04.203Z,19.50
2024-01-19T02:31:32.084Z,17.43
2024-01-19T02:33:59.826Z,18.77
2024-01-19T02:36:27.538Z,26.53
2024-01-19T02:38:55.239Z,16.63
2024-01-19T02:41:23.026Z,16.97
2024-01-19T02:43:52.052Z,19.77
2024-01-19T02:46:21.703Z,15.03
2024-01-19T02:48:49.441Z,16.20
2024-01-19T02:51:17.368Z,18.37
2024-01-19T02:53:44.990Z,20.97
2024-01-19T02:56:12.715Z,18.20
2024-01-19T02:58:40.342Z,16.63
2024-01-19T03:01:11.151Z,17.30
2024-01-19T03:03:38.971Z,19.13
2024-01-19T03:06:07.288Z,16.13
2024-01-19T03:08:35.004Z,20.80
2024-01-19T03:11:02.692Z,20.00
2024-01-19T03:13:30.336Z,17.20
2024-01-19T03:15:59.187Z,16.17
2024-01-19T03:18:28.718Z,18.10
2024-01-19T03:20:56.539Z,18.37
2024-01-19T03:23:24.256Z,17.80
2024-01-19T03:25:52.573Z,17.27
2024-01-19T03:28:20.183Z,16.43
2024-01-19T03:30:47.849Z,17.90
2024-01-19T03:33:15.674Z,19.23
2024-01-19T03:35:44.888Z,18.27
2024-01-19T03:38:14.641Z,18.97
2024-01-19T03:40:42.265Z,18.20
2024-01-19T03:43:09.949Z,19.80
2024-01-19T03:45:37.607Z,16.43
2024-01-19T03:48:05.654Z,17.70
2024-01-19T03:50:33.606Z,16.10
2024-01-19T03:53:02.624Z,20.80
2024-01-19T03:55:30.265Z,16.50
2024-01-19T03:57:57.926Z,15.50
2024-01-19T04:00:25.591Z,17.90
2024-01-19T04:02:53.531Z,15.70
2024-01-19T04:05:22.863Z,15.97
2024-01-19T04:07:50.576Z,17.27
2024-01-19T04:10:19.578Z,13.73
2024-01-19T04:12:47.184Z,15.07
2024-01-19T04:15:14.825Z,19.93
2024-01-19T04:17:42.584Z,15.77
2024-01-19T04:20:10.804Z,14.20
2024-01-19T04:22:38.489Z,13.20
2024-01-19T04:25:06.972Z,16.57
2024-01-19T04:27:35.992Z,13.67
2024-01-19T04:30:03.777Z,16.43
2024-01-19T04:32:31.677Z,11.87
2024-01-19T04:34:59.366Z,15.23
2024-01-19T04:37:26.997Z,16.73
2024-01-19T04:39:54.642Z,10.67
2024-01-19T04:42:22.383Z,16.27
2024-01-19T04:44:52.557Z,14.07
2024-01-19T04:47:20.303Z,13.87
2024-01-19T04:49:48.051Z,11.30
2024-01-19T04:52:15.789Z,15.20
2024-01-19T04:54:43.468Z,15.30
2024-01-19T04:57:11.179Z,10.90
2024-01-19T04:59:38.888Z,12.23
2024-01-19T05:02:07.843Z,14.03
2024-01-19T05:04:35.685Z,14.57
2024-01-19T05:07:03.414Z,14.73
2024-01-19T05:09:31.030Z,12.97
2024-01-19T05:11:58.731Z,12.80
2024-01-19T05:14:26.476Z,14.20
2024-01-19T05:16:54.147Z,12.33
2024-01-19T05:19:23.152Z,16.53
2024-01-19T05:21:50.972Z,17.20
2024-01-19T05:24:19.319Z,17.50
2024-01-19T05:26:46.991Z,14.63
2024-01-19T05:29:14.641Z,13.07
2024-01-19T05:31:42.291Z,14.20
2024-01-19T05:34:10.129Z,14.10
2024-01-19T05:36:39.211Z,15.73
2024-01-19T05:39:07.097Z,14.37
2024-01-19T05:41:35.011Z,14.30
2024-01-19T05:44:02.722Z,13.63
2024-01-19T05:46:30.351Z,17.93
2024-01-19T05:48:58.011Z,17.23
2024-01-19T05:51:25.827Z,15.07
2024-01-19T05:53:54.903Z,17.33
2024-01-19T05:56:22.629Z,15.93
2024-01-19T05:58:50.291Z,14.57
2024-01-19T06:01:18.217Z,19.23
2024-01-19T06:03:45.868Z,16.13
2024-01-19T06:06:13.618Z,15.43
2024-01-19T06:08:41.334Z,14.23
2024-01-19T06:11:10.686Z,19.03
2024-01-19T06:13:40.773Z,15.27
2024-01-19T06:16:08.497Z,13.57
2024-01-19T06:18:36.337Z,14.43
2024-01-19T06:21:04.265Z,16.00
2024-01-19T06:23:32.015Z,13.17
2024-01-19T06:25:59.820Z,14.20
2024-01-19T06:28:28.914Z,13.03
2024-01-19T06:30:56.541Z,13.43
2024-01-19T06:33:24.227Z,16.80
2024-01-19T06:35:51.361Z,13.37
2024-01-19T06:38:19.082Z,15.23
2024-01-19T06:40:47.519Z,14.10
2024-01-19T06:43:15.172Z,18.30
2024-01-19T06:45:44.146Z,14.70
2024-01-19T06:48:11.983Z,16.40
2024-01-19T06:50:40.083Z,13.83
2024-01-19T06:53:08.380Z,15.73
2024-01-19T06:55:36.010Z,17.03
2024-01-19T06:58:03.785Z,14.63
2024-01-19T07:00:31.538Z,12.93
2024-01-19T07:05:28.722Z,15.73
2024-01-19T07:07:58.991Z,13.20
2024-01-19T07:10:27.010Z,13.80
2024-01-19T07:12:54.572Z,13.90
2024-01-19T07:15:22.197Z,14.07
2024-01-19T07:17:49.944Z,13.97
2024-01-19T07:20:19.287Z,13.67
2024-01-19T07:22:46.942Z,15.27
2024-01-19T07:25:14.854Z,16.57
2024-01-19T07:27:42.492Z,12.97
2024-01-19T07:30:10.776Z,15.47
2024-01-19T07:32:51.815Z,12.13
2024-01-19T07:35:27.517Z,11.00
2024-01-19T07:37:55.355Z,14.70
2024-01-19T07:40:22.993Z,13.30
2024-01-19T07:42:50.778Z,12.23
2024-01-19T07:45:18.510Z,13.40
2024-01-19T07:47:46.159Z,15.20
2024-01-19T07:50:13.894Z,13.83
2024-01-19T07:52:42.964Z,16.87
2024-01-19T07:55:10.656Z,10.97
2024-01-19T07:57:38.659Z,15.70
2024-01-19T08:00:07.926Z,9.90
2024-01-19T08:02:35.749Z,12.63
2024-01-19T08:05:03.424Z,10.90
2024-01-19T08:07:31.034Z,9.83
2024-01-19T08:10:00.303Z,12.53
2024-01-19T08:12:28.103Z,11.90
2024-01-19T08:14:58.251Z,13.10
2024-01-19T08:17:26.059Z,9.90
2024-01-19T08:19:53.784Z,12.27
2024-01-19T08:22:21.553Z,15.47
2024-01-19T08:24:49.239Z,11.83
2024-01-19T08:27:18.262Z,15.47
2024-01-19T08:29:47.680Z,12.47
2024-01-19T08:32:15.578Z,12.97
2024-01-19T08:34:44.828Z,13.97
2024-01-19T08:37:12.499Z,13.53
2024-01-19T08:39:40.116Z,11.43
2024-01-19T08:42:08.202Z,12.97
2024-01-19T08:44:37.199Z,10.97
2024-01-19T08:47:05.342Z,14.07
2024-01-19T08:49:33.075Z,16.00
2024-01-19T08:52:00.741Z,11.83
2024-01-19T08:54:28.353Z,12.57
2024-01-19T08:56:58.677Z,11.53
2024-01-19T08:59:27.395Z,14.43
2024-01-19T09:01:57.773Z,15.40
2024-01-19T09:04:25.659Z,12.87
2024-01-19T09:06:54.538Z,14.80
2024-01-19T09:09:22.203Z,13.43
2024-01-19T09:11:49.875Z,13.20
2024-01-19T09:14:17.540Z,16.13
2024-01-19T09:16:45.518Z,12.67
2024-01-19T09:19:14.917Z,11.87
2024-01-19T09:21:45.388Z,15.07
2024-01-19T09:24:13.391Z,12.90
2024-01-19T09:26:41.389Z,10.00
2024-01-19T09:29:11.211Z,14.10
2024-01-19T09:31:43.050Z,16.37
2024-01-19T09:34:10.844Z,15.23
2024-01-19T09:36:40.681Z,12.73
2024-01-19T09:39:08.474Z,14.07
2024-01-19T09:41:39.625Z,13.20
2024-01-19T09:44:10.101Z,10.47
2024-01-19T09:46:49.499Z,12.40
2024-01-19T09:49:25.342Z,14.23
2024-01-19T09:51:58.514Z,16.33
2024-01-19T09:54:34.608Z,11.77
2024-01-19T09:57:02.577Z,15.10
2024-01-19T09:59:32.770Z,12.63
2024-01-19T10:02:01.013Z,9.57
2024-01-19T10:04:29.235Z,10.47
2024-01-19T10:06:58.339Z,11.67
2024-01-19T10:09:26.286Z,14.90
2024-01-19T10:11:55.981Z,13.53
2024-01-19T10:14:26.966Z,16.37
2024-01-19T10:16:54.785Z,11.93
2024-01-19T10:19:22.659Z,15.23
2024-01-19T10:21:52.154Z,14.10
2024-01-19T10:24:22.118Z,12.90
2024-01-19T10:26:53.747Z,14.33
2024-01-19T10:29:22.343Z,13.53
2024-01-19T10:31:50.926Z,14.70
2024-01-19T10:34:19.566Z,13.47
2024-01-19T10:36:48.136Z,14.37
2024-01-19T10:39:22.342Z,12.77
2024-01-19T10:41:51.772Z,13.50
2024-01-19T10:44:22.422Z,14.63
2024-01-19T10:46:51.430Z,15.63
2024-01-19T10:49:20.173Z,14.47
2024-01-19T10:51:48.707Z,12.13
2024-01-19T10:54:26.723Z,16.00
2024-01-19T10:57:05.075Z,15.80
2024-01-19T10:59:32.862Z,12.00
2024-01-19T11:02:02.119Z,14.53
2024-01-19T11:04:29.908Z,14.43
2024-01-19T11:06:58.049Z,12.13
2024-01-19T11:09:27.224Z,14.10
2024-01-19T11:11:56.687Z,13.17
2024-01-19T11:14:25.162Z,13.00
2024-01-19T11:16:54.712Z,13.43
2024-01-19T11:19:24.494Z,13.07
2024-01-19T11:21:52.195Z,13.93
2024-01-19T11:24:21.820Z,13.03
2024-01-19T11:26:56.784Z,14.50
2024-01-19T11:29:29.804Z,10.13
2024-01-19T11:31:57.643Z,12.30
2024-01-19T11:34:44.851Z,14.90
2024-01-19T11:37:40.838Z,14.37
2024-01-19T11:40:09.244Z,16.43
2024-01-19T11:42:47.983Z,13.83
2024-01-19T11:45:41.302Z,15.43
2024-01-19T11:48:10.334Z,14.53
2024-01-19T11:50:42.268Z,11.27
2024-01-19T11:53:10.166Z,13.53
2024-01-19T11:55:46.712Z,13.13
2024-01-19T11:58:36.194Z,13.20
2024-01-19T12:01:05.642Z,12.67
2024-01-19T12:03:33.565Z,13.43
2024-01-19T12:06:02.453Z,13.73
2024-01-19T12:08:30.667Z,14.07
2024-01-19T12:11:09.743Z,13.00
2024-01-19T12:13:46.258Z,13.70
2024-01-19T12:16:21.936Z,15.30
2024-01-19T12:18:55.254Z,17.63
2024-01-19T12:21:32.525Z,14.40
2024-01-19T12:28:06.526Z,13.23
2024-01-19T12:30:45.848Z,14.73
2024-01-19T12:33:17.998Z,16.47
2024-01-19T12:35:47.237Z,13.40
2024-01-19T12:38:15.923Z,12.90
2024-01-19T12:40:44.511Z,13.50
2024-01-19T12:43:12.434Z,10.70
2024-01-19T12:45:41.605Z,13.23
2024-01-19T12:48:21.229Z,10.97
2024-01-19T12:50:53.375Z,10.27
2024-01-19T12:53:21.090Z,11.93
2024-01-19T12:55:52.822Z,10.97
2024-01-19T12:58:24.358Z,12.73
2024-01-19T13:00:53.458Z,10.53
2024-01-19T13:03:22.330Z,10.27
2024-01-19T13:05:50.111Z,10.93
2024-01-19T13:08:21.260Z,11.37
2024-01-19T13:10:49.779Z,13.80
2024-01-19T13:13:19.200Z,12.93
2024-01-19T13:15:47.043Z,12.60
2024-01-19T13:18:19.194Z,12.63
2024-01-19T13:20:47.212Z,14.67
2024-01-19T13:23:15.410Z,15.10
2024-01-19T13:25:53.580Z,16.40
2024-01-19T13:28:21.242Z,13.27
2024-01-19T13:30:50.471Z,13.57
2024-01-19T13:33:19.606Z,12.67
2024-01-19T13:35:48.861Z,11.83
2024-01-19T13:38:16.551Z,13.40
2024-01-19T13:40:44.137Z,12.97
2024-01-19T13:43:11.812Z,12.97
2024-01-19T13:45:39.490Z,13.53
2024-01-19T13:48:08.108Z,10.03
2024-01-19T13:50:37.168Z,12.60
2024-01-19T13:53:05.109Z,11.37
2024-01-19T13:55:32.775Z,13.13
2024-01-19T13:58:00.533Z,15.33
2024-01-19T14:00:28.159Z,11.50
2024-01-19T14:02:55.830Z,11.63
2024-01-19T14:05:23.547Z,11.83
2024-01-19T14:07:56.066Z,12.07
2024-01-19T14:10:25.012Z,10.93
2024-01-19T14:12:52.857Z,13.87
2024-01-19T14:15:20.544Z,14.63
2024-01-19T14:17:48.261Z,12.03
2024-01-19T14:20:16.117Z,13.90
2024-01-19T14:22:44.231Z,13.30
2024-01-19T14:25:13.269Z,15.23
2024-01-19T14:27:42.143Z,15.20
2024-01-19T14:30:10.647Z,15.37
2024-01-19T14:32:39.853Z,13.70
2024-01-19T14:35:08.317Z,13.37
2024-01-19T14:37:36.175Z,14.23
2024-01-19T14:40:05.849Z,13.23
2024-01-19T14:42:34.833Z,12.80
2024-01-19T14:45:02.512Z,15.97
2024-01-19T14:47:30.109Z,15.80
2024-01-19T14:50:01.028Z,14.80
2024-01-19T14:52:29.297Z,13.13
2024-01-19T14:54:59.565Z,15.03
2024-01-19T14:57:27.319Z,12.47
2024-01-19T14:59:56.291Z,12.23
2024-01-19T15:02:23.958Z,11.37
2024-01-19T15:04:52.697Z,13.20
2024-01-19T15:07:20.431Z,17.30
2024-01-19T15:09:48.151Z,13.77
2024-01-19T15:12:15.773Z,14.87
2024-01-19T15:14:43.410Z,14.60
2024-01-19T15:17:12.440Z,13.70
2024-01-19T15:19:40.204Z,12.63
2024-01-19T15:22:07.956Z,13.10
2024-01-19T15:24:35.612Z,17.10
2024-01-19T15:27:03.271Z,15.13
2024-01-19T15:29:31.065Z,15.20
2024-01-19T15:31:58.928Z,14.50
2024-01-19T15:34:28.066Z,15.83
2024-01-19T15:36:55.940Z,15.17
2024-01-19T15:39:23.682Z,14.93
2024-01-19T15:41:51.386Z,13.57
2024-01-19T15:44:19.056Z,17.23
2024-01-19T15:46:46.878Z,22.57
2024-01-19T15:49:14.580Z,17.90
2024-01-19T15:51:43.635Z,19.93
2024-01-19T15:54:11.371Z,18.77
2024-01-19T15:56:39.234Z,18.50
2024-01-19T15:59:07.756Z,18.27
2024-01-19T16:01:36.207Z,18.17
2024-01-19T16:04:05.135Z,16.07
2024-01-19T16:06:33.532Z,21.03
2024-01-19T16:09:03.046Z,13.70
2024-01-19T16:11:31.144Z,14.70
2024-01-19T16:13:58.955Z,18.17
2024-01-19T16:16:26.672Z,17.43
2024-01-19T16:18:54.429Z,15.93
2024-01-19T16:21:23.651Z,18.33
2024-01-19T16:23:51.735Z,19.63
2024-01-19T16:26:21.997Z,16.37
2024-01-19T16:28:50.243Z,18.20
2024-01-19T16:31:18.054Z,19.00
2024-01-19T16:33:46.929Z,19.20
2024-01-19T16:36:14.840Z,19.53
2024-01-19T16:38:43.749Z,19.57
2024-01-19T16:41:11.706Z,19.03
2024-01-19T16:43:40.804Z,18.80
2024-01-19T16:46:08.575Z,17.97
2024-01-19T16:48:36.317Z,21.23
2024-01-19T16:51:04.982Z,18.30
2024-01-19T16:53:32.923Z,19.40
2024-01-19T16:56:02.016Z,17.73
2024-01-19T16:58:29.776Z,17.80
2024-01-19T17:00:58.923Z,20.10
2024-01-19T17:03:26.723Z,18.23
2024-01-19T17:05:54.569Z,19.33
2024-01-19T17:08:22.392Z,15.97
2024-01-19T17:10:50.144Z,18.77
2024-01-19T17:13:17.820Z,18.80
2024-01-19T17:15:45.662Z,21.07
2024-01-19T17:18:15.420Z,21.50
2024-01-19T17:20:43.192Z,19.30
2024-01-19T17:23:11.045Z,22.87
2024-01-19T17:25:39.162Z,22.90
2024-01-19T17:28:08.454Z,17.60
2024-01-19T17:30:41.449Z,19.67
2024-01-19T17:33:09.599Z,18.63
2024-01-19T17:35:39.435Z,18.93
2024-01-19T17:38:07.282Z,18.43
2024-01-19T17:40:35.042Z,18.53
2024-01-19T17:43:05.809Z,19.63
2024-01-19T17:45:33.621Z,17.77
2024-01-19T17:48:01.346Z,20.57
2024-01-19T17:50:29.078Z,19.57
2024-01-19T17:52:58.246Z,19.40
2024-01-19T17:55:25.956Z,24.13
2024-01-19T17:57:53.665Z,19.27
2024-01-19T18:00:21.526Z,22.03
2024-01-19T18:02:49.305Z,21.63
2024-01-19T18:05:17.382Z,18.97
2024-01-19T18:07:45.523Z,21.77
2024-01-19T18:10:14.692Z,22.60
2024-01-19T18:12:42.444Z,19.67
2024-01-19T18:15:11.138Z,17.57
2024-01-19T18:17:39.080Z,22.07
2024-01-19T18:20:09.809Z,18.93
2024-01-19T18:22:37.719Z,20.63
2024-01-19T18:25:06.145Z,17.27
2024-01-19T18:27:35.261Z,22.40
2024-01-19T18:30:03.295Z,22.10
2024-01-19T18:32:31.716Z,19.20
2024-01-19T18:35:00.189Z,24.83
2024-01-19T18:37:27.964Z,20.93
2024-01-19T18:39:55.692Z,19.83
2024-01-19T18:42:23.424Z,17.50
2024-01-19T18:44:52.568Z,18.97
2024-01-19T18:47:21.641Z,18.90
2024-01-19T18:49:50.635Z,20.13
2024-01-19T18:52:22.835Z,17.43
2024-01-19T18:54:51.040Z,21.03
2024-01-19T18:57:19.138Z,21.37
2024-01-19T18:59:47.096Z,20.60
2024-01-19T19:02:17.941Z,19.70
2024-01-19T19:04:45.769Z,20.20
2024-01-19T19:07:13.756Z,19.37
2024-01-19T19:09:41.594Z,23.73
2024-01-19T19:12:09.504Z,20.20
2024-01-19T19:14:37.339Z,23.70
2024-01-19T19:17:05.487Z,20.23
2024-01-19T19:19:34.872Z,21.17
2024-01-19T19:22:02.610Z,23.50
2024-01-19T19:24:30.505Z,20.30
2024-01-19T19:26:58.189Z,20.90
2024-01-19T19:29:25.888Z,19.40
2024-01-19T19:31:53.684Z,18.97
2024-01-19T19:34:22.878Z,16.87
2024-01-19T19:36:54.650Z,25.83
2024-01-19T19:39:22.304Z,20.50
2024-01-19T19:41:50.069Z,20.37
2024-01-19T19:44:18.004Z,21.27
2024-01-19T19:46:45.881Z,18.20
2024-01-19T19:49:13.743Z,19.50
2024-01-19T19:51:41.450Z,19.93
2024-01-19T19:54:10.500Z,20.30
2024-01-19T19:56:38.643Z,23.73
2024-01-19T19:59:06.894Z,21.73
2024-01-19T20:01:34.724Z,24.53
2024-01-19T20:04:02.426Z,21.47
2024-01-19T20:06:30.098Z,28.63
2024-01-19T20:08:57.970Z,25.83
2024-01-19T20:11:27.208Z,24.23
2024-01-19T20:13:55.003Z,21.27
2024-01-19T20:16:24.494Z,26.40
2024-01-19T20:18:54.834Z,19.83
2024-01-19T20:21:22.521Z,23.10
2024-01-19T20:23:50.222Z,23.77
2024-01-19T20:26:18.672Z,21.93
2024-01-19T20:28:48.512Z,22.60
2024-01-19T20:31:16.540Z,24.87
2024-01-19T20:33:44.245Z,20.87
2024-01-19T20:36:11.984Z,18.13
2024-01-19T20:38:39.752Z,22.83
2024-01-19T20:41:10.272Z,20.33
2024-01-19T20:43:38.036Z,22.57
2024-01-19T20:46:07.085Z,23.10
2024-01-19T20:48:35.033Z,22.50
2024-01-19T20:51:02.768Z,19.73
2024-01-19T20:53:30.357Z,25.07
2024-01-19T20:55:58.069Z,22.80
2024-01-19T20:58:28.318Z,20.93
2024-01-19T21:00:56.479Z,20.57
2024-01-19T21:03:25.961Z,24.00
2024-01-19T21:05:53.829Z,23.03
2024-01-19T21:08:27.654Z,22.40
2024-01-19T21:10:58.287Z,21.00
2024-01-19T21:13:28.631Z,24.80
2024-01-19T21:15:56.418Z,21.03
2024-01-19T21:18:24.518Z,23.70
2024-01-19T21:20:55.012Z,24.03
2024-01-19T21:23:25.340Z,25.17
2024-01-19T21:25:54.281Z,21.67
2024-01-19T21:28:22.120Z,26.47
2024-01-19T21:30:49.766Z,19.30
2024-01-19T21:33:17.450Z,23.67
2024-01-19T21:35:45.155Z,21.97
2024-01-19T21:38:16.722Z,21.33
2024-01-19T21:40:44.722Z,20.57
2024-01-19T21:43:12.636Z,20.50
2024-01-19T21:45:40.326Z,21.10
2024-01-19T21:48:08.222Z,20.10
2024-01-19T21:50:36.343Z,30.10
2024-01-19T21:53:06.460Z,23.23
2024-01-19T21:55:35.722Z,26.33
2024-01-19T21:58:03.562Z,32.43
2024-01-19T22:00:31.486Z,25.57
2024-01-19T22:02:59.264Z,22.57
2024-01-19T22:05:27.978Z,24.97
2024-01-19T22:07:55.775Z,28.57
2024-01-19T22:10:23.923Z,25.43
2024-01-19T22:12:53.056Z,22.33
2024-01-19T22:15:20.882Z,23.63
2024-01-19T22:17:48.660Z,27.67
2024-01-19T22:20:16.496Z,27.50
2024-01-19T22:22:44.249Z,27.43
2024-01-19T22:25:12.044Z,29.20
2024-01-19T22:27:39.852Z,27.43
2024-01-19T22:30:09.980Z,27.43
2024-01-19T22:32:43.207Z,23.90
2024-01-19T22:35:11.524Z,31.10
2024-01-19T22:37:39.925Z,25.30
2024-01-19T22:40:10.209Z,30.03
2024-01-19T22:42:38.138Z,30.80
2024-01-19T22:45:06.925Z,27.30
2024-01-19T22:47:35.949Z,24.63
2024-01-19T22:50:04.682Z,25.77
2024-01-19T22:52:32.619Z,27.80
2024-01-19T22:55:00.703Z,26.03
2024-01-19T22:57:28.472Z,26.10
2024-01-19T22:59:57.418Z,26.73
2024-01-19T23:02:27.284Z,26.33
2024-01-19T23:04:56.498Z,29.50
2024-01-19T23:07:24.677Z,29.97
2024-01-19T23:09:52.385Z,26.70
2024-01-19T23:12:20.034Z,29.47
2024-01-19T23:14:47.973Z,26.57
2024-01-19T23:17:15.693Z,25.63
2024-01-19T23:19:43.726Z,25.67
2024-01-19T23:22:12.924Z,25.67
2024-01-19T23:24:40.661Z,25.07
2024-01-19T23:27:08.387Z,22.60
2024-01-19T23:29:36.172Z,24.07
2024-01-19T23:32:07.238Z,22.60
2024-01-19T23:34:36.149Z,25.50
2024-01-19T23:37:04.719Z,21.23
2024-01-19T23:39:33.880Z,24.77
2024-01-19T23:42:01.778Z,23.90
2024-01-19T23:44:29.442Z,21.47
2024-01-19T23:46:57.159Z,22.60
2024-01-19T23:49:27.529Z,20.47
2024-01-19T23:51:56.320Z,22.20
2024-01-19T23:54:23.940Z,22.37
2024-01-19T23:56:53.833Z,24.87
2024-01-19T23:59:21.435Z,25.43
